sensor_id;sensor_type;location;lat;lon;timestamp;pressure;altitude;pressure_sealevel;temperature;humidity
41632;BME280;37452;51.938;4.624;2023-05-20T00:00:57;77853.94;;;-142.75;100.00
41632;BME280;37452;51.938;4.624;2023-05-20T00:03:22;77857.88;;;-142.75;100.00
41632;BME280;37452;51.938;4.624;2023-05-20T00:05:47;77865.75;;;-142.75;100.00
41632;BME280;37452;51.938;4.624;2023-05-20T00:08:13;77861.81;;;-142.75;100.00
41632;BME280;37452;51.938;4.624;2023-05-20T00:10:38;77879.53;;;-142.75;100.00
41632;BME280;37452;51.938;4.624;2023-05-20T00:13:03;77877.56;;;-142.75;100.00
41632;BME280;37452;51.938;4.624;2023-05-20T00:15:29;77883.47;;;-142.75;100.00
41632;BME280;37452;51.938;4.624;2023-05-20T00:17:54;77885.44;;;-142.75;100.00
41632;BME280;37452;51.938;4.624;2023-05-20T00:20:19;77887.41;;;-142.75;100.00
41632;BME280;37452;51.938;4.624;2023-05-20T00:22:45;77881.50;;;-142.75;100.00
41632;BME280;37452;51.938;4.624;2023-05-20T00:25:10;77899.22;;;-142.75;100.00
41632;BME280;37452;51.938;4.624;2023-05-20T00:27:38;77899.22;;;-142.75;100.00
41632;BME280;37452;51.938;4.624;2023-05-20T00:30:03;77905.13;;;-142.75;100.00
41632;BME280;37452;51.938;4.624;2023-05-20T00:32:29;77913.03;;;-142.75;100.00
41632;BME280;37452;51.938;4.624;2023-05-20T00:34:55;77913.03;;;-142.75;100.00
41632;BME280;37452;51.938;4.624;2023-05-20T00:37:21;77928.78;;;-142.75;100.00
41632;BME280;37452;51.938;4.624;2023-05-20T00:39:46;77924.84;;;-142.75;100.00
41632;BME280;37452;51.938;4.624;2023-05-20T00:42:18;77920.91;;;-142.75;100.00
41632;BME280;37452;51.938;4.624;2023-05-20T00:44:43;77920.91;;;-142.75;100.00
41632;BME280;37452;51.938;4.624;2023-05-20T00:47:08;77909.06;;;-142.75;100.00
41632;BME280;37452;51.938;4.624;2023-05-20T00:49:33;77913.03;;;-142.75;100.00
41632;BME280;37452;51.938;4.624;2023-05-20T00:51:58;77911.06;;;-142.75;100.00
41632;BME280;37452;51.938;4.624;2023-05-20T00:54:24;77907.09;;;-142.75;100.00
41632;BME280;37452;51.938;4.624;2023-05-20T00:56:49;77911.06;;;-142.75;100.00
41632;BME280;37452;51.938;4.624;2023-05-20T00:59:15;77907.09;;;-142.75;100.00
41632;BME280;37452;51.938;4.624;2023-05-20T01:01:40;77916.97;;;-142.75;100.00
41632;BME280;37452;51.938;4.624;2023-05-20T01:04:05;77909.06;;;-142.75;100.00
41632;BME280;37452;51.938;4.624;2023-05-20T01:06:30;77905.13;;;-142.75;100.00
41632;BME280;37452;51.938;4.624;2023-05-20T01:08:57;77913.03;;;-142.75;100.00
41632;BME280;37452;51.938;4.624;2023-05-20T01:11:28;77911.06;;;-142.75;100.00
41632;BME280;37452;51.938;4.624;2023-05-20T01:13:57;77913.03;;;-142.75;100.00
41632;BME280;37452;51.938;4.624;2023-05-20T01:16:24;77901.19;;;-142.75;100.00
41632;BME280;37452;51.938;4.624;2023-05-20T01:18:50;77913.03;;;-142.75;100.00
41632;BME280;37452;51.938;4.624;2023-05-20T01:21:19;77913.03;;;-142.75;100.00
41632;BME280;37452;51.938;4.624;2023-05-20T01:23:44;77920.91;;;-142.75;100.00
41632;BME280;37452;51.938;4.624;2023-05-20T01:26:09;77926.81;;;-142.75;100.00
41632;BME280;37452;51.938;4.624;2023-05-20T01:28:37;77932.72;;;-142.75;100.00
41632;BME280;37452;51.938;4.624;2023-05-20T01:31:04;77928.78;;;-142.75;100.00
41632;BME280;37452;51.938;4.624;2023-05-20T01:33:29;77936.66;;;-142.75;100.00
41632;BME280;37452;51.938;4.624;2023-05-20T01:35:56;77928.78;;;-142.75;100.00
41632;BME280;37452;51.938;4.624;2023-05-20T01:38:22;77926.81;;;-142.75;100.00
41632;BME280;37452;51.938;4.624;2023-05-20T01:40:47;77928.78;;;-142.75;100.00
41632;BME280;37452;51.938;4.624;2023-05-20T01:43:13;77934.69;;;-142.75;100.00
41632;BME280;37452;51.938;4.624;2023-05-20T01:45:40;77936.66;;;-142.75;100.00
41632;BME280;37452;51.938;4.624;2023-05-20T01:48:05;77944.53;;;-142.75;100.00
41632;BME280;37452;51.938;4.624;2023-05-20T01:50:30;77940.59;;;-142.75;100.00
41632;BME280;37452;51.938;4.624;2023-05-20T01:52:56;77938.63;;;-142.75;100.00
41632;BME280;37452;51.938;4.624;2023-05-20T01:55:21;77944.53;;;-142.75;100.00
41632;BME280;37452;51.938;4.624;2023-05-20T01:57:46;77948.47;;;-142.75;100.00
41632;BME280;37452;51.938;4.624;2023-05-20T02:00:12;77948.47;;;-142.75;100.00
41632;BME280;37452;51.938;4.624;2023-05-20T02:02:37;77948.47;;;-142.75;100.00
41632;BME280;37452;51.938;4.624;2023-05-20T02:05:02;77952.41;;;-142.75;100.00
41632;BME280;37452;51.938;4.624;2023-05-20T02:07:27;77944.53;;;-142.75;100.00
41632;BME280;37452;51.938;4.624;2023-05-20T02:09:53;77942.56;;;-142.75;100.00
41632;BME280;37452;51.938;4.624;2023-05-20T02:12:18;77938.63;;;-142.75;100.00
41632;BME280;37452;51.938;4.624;2023-05-20T02:14:43;77924.84;;;-142.75;100.00
41632;BME280;37452;51.938;4.624;2023-05-20T02:17:09;77940.59;;;-142.75;100.00
41632;BME280;37452;51.938;4.624;2023-05-20T02:19:34;77932.72;;;-142.75;100.00
41632;BME280;37452;51.938;4.624;2023-05-20T02:21:59;77928.78;;;-142.75;100.00
41632;BME280;37452;51.938;4.624;2023-05-20T02:24:25;77932.72;;;-142.75;100.00
41632;BME280;37452;51.938;4.624;2023-05-20T02:26:50;77938.63;;;-142.75;100.00
41632;BME280;37452;51.938;4.624;2023-05-20T02:29:17;77918.94;;;-142.75;100.00
41632;BME280;37452;51.938;4.624;2023-05-20T02:31:43;77918.94;;;-142.75;100.00
41632;BME280;37452;51.938;4.624;2023-05-20T02:34:09;77922.88;;;-142.75;100.00
41632;BME280;37452;51.938;4.624;2023-05-20T02:36:34;77918.94;;;-142.75;100.00
41632;BME280;37452;51.938;4.624;2023-05-20T02:39:00;77915.00;;;-142.75;100.00
41632;BME280;37452;51.938;4.624;2023-05-20T02:41:25;77909.06;;;-142.75;100.00
41632;BME280;37452;51.938;4.624;2023-05-20T02:43:50;77909.06;;;-142.75;100.00
41632;BME280;37452;51.938;4.624;2023-05-20T02:46:15;77907.09;;;-142.75;100.00
41632;BME280;37452;51.938;4.624;2023-05-20T02:48:42;77911.06;;;-142.75;100.00
41632;BME280;37452;51.938;4.624;2023-05-20T02:51:07;77903.16;;;-142.75;100.00
41632;BME280;37452;51.938;4.624;2023-05-20T02:53:32;77915.00;;;-142.75;100.00
41632;BME280;37452;51.938;4.624;2023-05-20T02:55:58;77915.00;;;-142.75;100.00
41632;BME280;37452;51.938;4.624;2023-05-20T02:58:23;77926.81;;;-142.75;100.00
41632;BME280;37452;51.938;4.624;2023-05-20T03:00:50;77924.84;;;-142.75;100.00
41632;BME280;37452;51.938;4.624;2023-05-20T03:03:15;77926.81;;;-142.75;100.00
41632;BME280;37452;51.938;4.624;2023-05-20T03:05:41;77928.78;;;-142.75;100.00
41632;BME280;37452;51.938;4.624;2023-05-20T03:08:09;77930.75;;;-142.75;100.00
41632;BME280;37452;51.938;4.624;2023-05-20T03:10:36;77926.81;;;-142.75;100.00
41632;BME280;37452;51.938;4.624;2023-05-20T03:13:01;77936.66;;;-142.75;100.00
41632;BME280;37452;51.938;4.624;2023-05-20T03:15:27;77942.56;;;-142.75;100.00
41632;BME280;37452;51.938;4.624;2023-05-20T03:17:52;77938.63;;;-142.75;100.00
41632;BME280;37452;51.938;4.624;2023-05-20T03:20:18;77938.63;;;-142.75;100.00
41632;BME280;37452;51.938;4.624;2023-05-20T03:22:43;77940.59;;;-142.75;100.00
41632;BME280;37452;51.938;4.624;2023-05-20T03:25:08;77936.66;;;-142.75;100.00
41632;BME280;37452;51.938;4.624;2023-05-20T03:27:34;77944.53;;;-142.75;100.00
41632;BME280;37452;51.938;4.624;2023-05-20T03:30:02;77944.53;;;-142.75;100.00
41632;BME280;37452;51.938;4.624;2023-05-20T03:32:27;77960.28;;;-142.75;100.00
41632;BME280;37452;51.938;4.624;2023-05-20T03:34:52;77950.44;;;-142.75;100.00
41632;BME280;37452;51.938;4.624;2023-05-20T03:37:18;77956.34;;;-142.75;100.00
41632;BME280;37452;51.938;4.624;2023-05-20T03:39:43;77964.22;;;-142.75;100.00
41632;BME280;37452;51.938;4.624;2023-05-20T03:42:08;77968.16;;;-142.75;100.00
41632;BME280;37452;51.938;4.624;2023-05-20T03:44:34;77964.22;;;-142.75;100.00
41632;BME280;37452;51.938;4.624;2023-05-20T03:46:59;77958.31;;;-142.75;100.00
41632;BME280;37452;51.938;4.624;2023-05-20T03:49:24;77936.66;;;-142.75;100.00
41632;BME280;37452;51.938;4.624;2023-05-20T03:51:49;77934.69;;;-142.75;100.00
41632;BME280;37452;51.938;4.624;2023-05-20T03:54:15;77938.63;;;-142.75;100.00
41632;BME280;37452;51.938;4.624;2023-05-20T03:56:41;77932.72;;;-142.75;100.00
41632;BME280;37452;51.938;4.624;2023-05-20T03:59:06;77936.66;;;-142.75;100.00
41632;BME280;37452;51.938;4.624;2023-05-20T04:01:31;77930.75;;;-142.75;100.00
41632;BME280;37452;51.938;4.624;2023-05-20T04:03:57;77930.75;;;-142.75;100.00
41632;BME280;37452;51.938;4.624;2023-05-20T04:06:23;77938.63;;;-142.75;100.00
41632;BME280;37452;51.938;4.624;2023-05-20T04:08:48;77934.69;;;-142.75;100.00
41632;BME280;37452;51.938;4.624;2023-05-20T04:11:14;77926.81;;;-142.75;100.00
41632;BME280;37452;51.938;4.624;2023-05-20T04:13:39;77932.72;;;-142.75;100.00
41632;BME280;37452;51.938;4.624;2023-05-20T04:16:04;77936.66;;;-142.75;100.00
41632;BME280;37452;51.938;4.624;2023-05-20T04:18:29;77928.78;;;-142.75;100.00
41632;BME280;37452;51.938;4.624;2023-05-20T04:20:55;77926.81;;;-142.75;100.00
41632;BME280;37452;51.938;4.624;2023-05-20T04:23:21;77930.75;;;-142.75;100.00
41632;BME280;37452;51.938;4.624;2023-05-20T04:25:46;77928.78;;;-142.75;100.00
41632;BME280;37452;51.938;4.624;2023-05-20T04:28:12;77926.81;;;-142.75;100.00
41632;BME280;37452;51.938;4.624;2023-05-20T04:30:40;77930.75;;;-142.75;100.00
41632;BME280;37452;51.938;4.624;2023-05-20T04:33:06;77924.84;;;-142.75;100.00
41632;BME280;37452;51.938;4.624;2023-05-20T04:35:31;77920.91;;;-142.75;100.00
41632;BME280;37452;51.938;4.624;2023-05-20T04:37:58;77915.00;;;-142.75;100.00
41632;BME280;37452;51.938;4.624;2023-05-20T04:40:25;77913.03;;;-142.75;100.00
41632;BME280;37452;51.938;4.624;2023-05-20T04:42:51;77911.06;;;-142.75;100.00
41632;BME280;37452;51.938;4.624;2023-05-20T04:45:16;77893.31;;;-142.75;100.00
41632;BME280;37452;51.938;4.624;2023-05-20T04:47:42;77897.25;;;-142.75;100.00
41632;BME280;37452;51.938;4.624;2023-05-20T04:50:08;77881.50;;;-142.75;100.00
41632;BME280;37452;51.938;4.624;2023-05-20T04:52:37;77869.69;;;-142.75;100.00
41632;BME280;37452;51.938;4.624;2023-05-20T04:55:03;77848.03;;;-142.75;100.00
41632;BME280;37452;51.938;4.624;2023-05-20T04:57:28;77857.88;;;-142.75;100.00
41632;BME280;37452;51.938;4.624;2023-05-20T04:59:54;77834.25;;;-142.75;100.00
41632;BME280;37452;51.938;4.624;2023-05-20T05:02:23;77830.31;;;-142.75;100.00
41632;BME280;37452;51.938;4.624;2023-05-20T05:04:48;77806.69;;;-142.75;100.00
41632;BME280;37452;51.938;4.624;2023-05-20T05:07:13;77802.75;;;-142.75;100.00
41632;BME280;37452;51.938;4.624;2023-05-20T05:09:38;77787.00;;;-142.75;100.00
41632;BME280;37452;51.938;4.624;2023-05-20T05:12:03;77788.97;;;-142.75;100.00
41632;BME280;37452;51.938;4.624;2023-05-20T05:14:29;77771.25;;;-142.75;100.00
41632;BME280;37452;51.938;4.624;2023-05-20T05:16:54;77777.16;;;-142.75;100.00
41632;BME280;37452;51.938;4.624;2023-05-20T05:19:19;77767.31;;;-142.75;100.00
41632;BME280;37452;51.938;4.624;2023-05-20T05:21:46;77755.50;;;-142.75;100.00
41632;BME280;37452;51.938;4.624;2023-05-20T05:24:11;77749.59;;;-142.75;100.00
41632;BME280;37452;51.938;4.624;2023-05-20T05:26:37;77727.94;;;-142.75;100.00
41632;BME280;37452;51.938;4.624;2023-05-20T05:29:02;77716.09;;;-142.75;100.00
41632;BME280;37452;51.938;4.624;2023-05-20T05:31:27;77716.09;;;-142.75;100.00
41632;BME280;37452;51.938;4.624;2023-05-20T05:33:52;77723.97;;;-142.75;100.00
41632;BME280;37452;51.938;4.624;2023-05-20T05:36:17;77723.97;;;-142.75;100.00
41632;BME280;37452;51.938;4.624;2023-05-20T05:38:43;77729.88;;;-142.75;100.00
41632;BME280;37452;51.938;4.624;2023-05-20T05:41:08;77692.47;;;-142.75;100.00
41632;BME280;37452;51.938;4.624;2023-05-20T05:43:33;77649.16;;;-142.75;100.00
41632;BME280;37452;51.938;4.624;2023-05-20T05:45:59;77621.59;;;-142.75;100.00
41632;BME280;37452;51.938;4.624;2023-05-20T05:48:24;77603.88;;;-142.75;100.00
41632;BME280;37452;51.938;4.624;2023-05-20T05:50:49;77572.38;;;-142.75;100.00
41632;BME280;37452;51.938;4.624;2023-05-20T05:53:14;77554.66;;;-142.75;100.00
41632;BME280;37452;51.938;4.624;2023-05-20T05:55:40;77558.59;;;-142.75;100.00
41632;BME280;37452;51.938;4.624;2023-05-20T05:58:05;77552.69;;;-142.75;100.00
41632;BME280;37452;51.938;4.624;2023-05-20T06:00:30;77538.91;;;-142.75;100.00
41632;BME280;37452;51.938;4.624;2023-05-20T06:02:55;77517.25;;;-142.75;100.00
41632;BME280;37452;51.938;4.624;2023-05-20T06:05:20;77505.44;;;-142.75;100.00
41632;BME280;37452;51.938;4.624;2023-05-20T06:07:46;77495.59;;;-142.75;100.00
41632;BME280;37452;51.938;4.624;2023-05-20T06:10:11;77503.47;;;-142.75;100.00
41632;BME280;37452;51.938;4.624;2023-05-20T06:12:36;77470.00;;;-142.75;100.00
41632;BME280;37452;51.938;4.624;2023-05-20T06:15:01;77495.59;;;-142.75;100.00
41632;BME280;37452;51.938;4.624;2023-05-20T06:17:27;77471.97;;;-142.75;100.00
41632;BME280;37452;51.938;4.624;2023-05-20T06:19:52;77470.00;;;-142.75;100.00
41632;BME280;37452;51.938;4.624;2023-05-20T06:22:17;77452.25;;;-142.75;100.00
41632;BME280;37452;51.938;4.624;2023-05-20T06:24:43;77448.34;;;-142.75;100.00
41632;BME280;37452;51.938;4.624;2023-05-20T06:27:08;77416.81;;;-142.75;100.00
41632;BME280;37452;51.938;4.624;2023-05-20T06:29:33;77410.91;;;-142.75;100.00
41632;BME280;37452;51.938;4.624;2023-05-20T06:31:59;77385.31;;;-142.75;100.00
41632;BME280;37452;51.938;4.624;2023-05-20T06:34:24;77381.38;;;-142.75;100.00
41632;BME280;37452;51.938;4.624;2023-05-20T06:36:49;77369.56;;;-142.75;100.00
41632;BME280;37452;51.938;4.624;2023-05-20T06:39:14;77361.69;;;-142.75;100.00
41632;BME280;37452;51.938;4.624;2023-05-20T06:41:40;77353.81;;;-142.75;100.00
41632;BME280;37452;51.938;4.624;2023-05-20T06:44:05;77320.34;;;-142.75;100.00
41632;BME280;37452;51.938;4.624;2023-05-20T06:46:31;77316.41;;;-142.75;100.00
41632;BME280;37452;51.938;4.624;2023-05-20T06:48:56;77300.66;;;-142.75;100.00
41632;BME280;37452;51.938;4.624;2023-05-20T06:51:21;77277.03;;;-142.75;100.00
41632;BME280;37452;51.938;4.624;2023-05-20T06:53:47;77267.19;;;-142.75;100.00
41632;BME280;37452;51.938;4.624;2023-05-20T06:56:12;77251.44;;;-142.75;100.00
41632;BME280;37452;51.938;4.624;2023-05-20T06:58:37;77235.69;;;-142.75;100.00
41632;BME280;37452;51.938;4.624;2023-05-20T07:01:02;77243.56;;;-142.75;100.00
41632;BME280;37452;51.938;4.624;2023-05-20T07:03:28;77202.22;;;-142.75;100.00
41632;BME280;37452;51.938;4.624;2023-05-20T07:05:53;77206.16;;;-142.75;100.00
41632;BME280;37452;51.938;4.624;2023-05-20T07:08:18;77192.38;;;-142.75;100.00
41632;BME280;37452;51.938;4.624;2023-05-20T07:10:43;77192.38;;;-142.75;100.00
41632;BME280;37452;51.938;4.624;2023-05-20T07:13:09;77172.69;;;-142.75;100.00
41632;BME280;37452;51.938;4.624;2023-05-20T07:15:35;77164.81;;;-142.75;100.00
41632;BME280;37452;51.938;4.624;2023-05-20T07:18:00;77151.03;;;-142.75;100.00
41632;BME280;37452;51.938;4.624;2023-05-20T07:20:25;77131.34;;;-142.75;100.00
41632;BME280;37452;51.938;4.624;2023-05-20T07:22:50;77105.75;;;-142.75;100.00
41632;BME280;37452;51.938;4.624;2023-05-20T07:25:15;77082.13;;;-142.75;100.00
41632;BME280;37452;51.938;4.624;2023-05-20T07:27:41;77066.38;;;-142.75;100.00
41632;BME280;37452;51.938;4.624;2023-05-20T07:30:06;77048.66;;;-142.75;100.00
41632;BME280;37452;51.938;4.624;2023-05-20T07:32:32;77046.69;;;-142.75;100.00
41632;BME280;37452;51.938;4.624;2023-05-20T07:34:57;77023.06;;;-142.75;100.00
41632;BME280;37452;51.938;4.624;2023-05-20T07:37:23;77023.06;;;-142.75;100.00
41632;BME280;37452;51.938;4.624;2023-05-20T07:39:48;76965.97;;;-142.75;100.00
41632;BME280;37452;51.938;4.624;2023-05-20T07:42:13;76983.69;;;-142.75;100.00
41632;BME280;37452;51.938;4.624;2023-05-20T07:44:38;76969.91;;;-142.75;100.00
41632;BME280;37452;51.938;4.624;2023-05-20T07:47:04;76960.06;;;-142.75;99.98
41632;BME280;37452;51.938;4.624;2023-05-20T07:49:29;76948.25;;;-142.75;100.00
41632;BME280;37452;51.938;4.624;2023-05-20T07:51:55;76952.19;;;-142.75;98.00
41632;BME280;37452;51.938;4.624;2023-05-20T07:54:20;76940.38;;;-142.75;100.00
41632;BME280;37452;51.938;4.624;2023-05-20T07:56:45;76908.88;;;-142.75;100.00
41632;BME280;37452;51.938;4.624;2023-05-20T07:59:10;76877.38;;;-142.75;99.36
41632;BME280;37452;51.938;4.624;2023-05-20T08:01:36;76928.56;;;-142.75;93.75
41632;BME280;37452;51.938;4.624;2023-05-20T08:04:01;76918.72;;;-142.75;96.74
41632;BME280;37452;51.938;4.624;2023-05-20T08:06:26;76851.78;;;-142.75;99.01
41632;BME280;37452;51.938;4.624;2023-05-20T08:08:52;76832.09;;;-142.75;96.57
41632;BME280;37452;51.938;4.624;2023-05-20T08:11:20;76851.78;;;-142.75;88.34
41632;BME280;37452;51.938;4.624;2023-05-20T08:13:46;76830.13;;;-142.75;94.46
41632;BME280;37452;51.938;4.624;2023-05-20T08:16:11;76810.44;;;-142.75;91.04
41632;BME280;37452;51.938;4.624;2023-05-20T08:18:37;76806.50;;;-142.75;92.02
41632;BME280;37452;51.938;4.624;2023-05-20T08:21:02;76790.78;;;-142.75;88.83
41632;BME280;37452;51.938;4.624;2023-05-20T08:23:27;76769.13;;;-142.75;89.87
41632;BME280;37452;51.938;4.624;2023-05-20T08:25:52;76765.19;;;-142.75;89.63
41632;BME280;37452;51.938;4.624;2023-05-20T08:28:18;76761.25;;;-142.75;89.94
41632;BME280;37452;51.938;4.624;2023-05-20T08:30:43;76715.97;;;-142.75;91.23
41632;BME280;37452;51.938;4.624;2023-05-20T08:33:08;76696.28;;;-142.75;90.09
41632;BME280;37452;51.938;4.624;2023-05-20T08:35:34;76680.53;;;-142.75;88.84
41632;BME280;37452;51.938;4.624;2023-05-20T08:37:59;76670.69;;;-142.75;90.11
41632;BME280;37452;51.938;4.624;2023-05-20T08:40:25;76670.69;;;-142.75;88.00
41632;BME280;37452;51.938;4.624;2023-05-20T08:42:50;76641.16;;;-142.75;86.72
41632;BME280;37452;51.938;4.624;2023-05-20T08:45:19;76613.59;;;-142.75;82.23
41632;BME280;37452;51.938;4.624;2023-05-20T08:47:51;76631.31;;;-142.75;79.74
41632;BME280;37452;51.938;4.624;2023-05-20T08:50:17;76619.50;;;-142.75;80.75
41632;BME280;37452;51.938;4.624;2023-05-20T08:52:43;76599.81;;;-142.75;81.55
41632;BME280;37452;51.938;4.624;2023-05-20T08:55:10;76589.97;;;-142.75;82.28
41632;BME280;37452;51.938;4.624;2023-05-20T08:57:38;76554.53;;;-142.75;82.95
41632;BME280;37452;51.938;4.624;2023-05-20T09:00:06;76538.78;;;-142.75;81.58
41632;BME280;37452;51.938;4.624;2023-05-20T09:02:40;76584.06;;;-142.75;78.68
41632;BME280;37452;51.938;4.624;2023-05-20T09:05:06;76534.84;;;-142.75;81.11
41632;BME280;37452;51.938;4.624;2023-05-20T09:07:31;76507.31;;;-142.75;79.85
41632;BME280;37452;51.938;4.624;2023-05-20T09:09:56;76497.47;;;-142.75;79.61
41632;BME280;37452;51.938;4.624;2023-05-20T09:12:22;76473.84;;;-142.75;78.68
41632;BME280;37452;51.938;4.624;2023-05-20T09:14:47;76499.44;;;-142.75;76.79
41632;BME280;37452;51.938;4.624;2023-05-20T09:17:13;76460.06;;;-142.75;79.88
41632;BME280;37452;51.938;4.624;2023-05-20T09:19:38;76452.19;;;-142.75;74.77
41632;BME280;37452;51.938;4.624;2023-05-20T09:22:03;76460.06;;;-142.75;72.41
41632;BME280;37452;51.938;4.624;2023-05-20T09:24:29;76452.19;;;-142.75;70.03
41632;BME280;37452;51.938;4.624;2023-05-20T09:26:55;76464.00;;;-142.75;70.41
41632;BME280;37452;51.938;4.624;2023-05-20T09:29:21;76430.53;;;-142.75;74.35
41632;BME280;37452;51.938;4.624;2023-05-20T09:31:47;76412.81;;;-142.75;71.66
41632;BME280;37452;51.938;4.624;2023-05-20T09:34:12;76436.44;;;-142.75;69.93
41632;BME280;37452;51.938;4.624;2023-05-20T09:36:38;76521.09;;;-142.75;67.71
41632;BME280;37452;51.938;4.624;2023-05-20T09:39:04;76523.06;;;-142.75;67.52
41632;BME280;37452;51.938;4.624;2023-05-20T09:41:32;76475.81;;;-142.75;66.10
41632;BME280;37452;51.938;4.624;2023-05-20T09:43:59;76479.75;;;-142.75;66.48
41632;BME280;37452;51.938;4.624;2023-05-20T09:46:25;76452.19;;;-142.75;68.05
41632;BME280;37452;51.938;4.624;2023-05-20T09:48:51;76410.84;;;-142.75;71.82
41632;BME280;37452;51.938;4.624;2023-05-20T09:51:17;76454.16;;;-142.75;67.41
41632;BME280;37452;51.938;4.624;2023-05-20T09:53:42;76410.84;;;-142.75;65.07
41632;BME280;37452;51.938;4.624;2023-05-20T09:56:08;76345.91;;;-142.75;69.40
41632;BME280;37452;51.938;4.624;2023-05-20T09:58:34;76397.06;;;-142.75;63.84
41632;BME280;37452;51.938;4.624;2023-05-20T10:01:00;76436.44;;;-142.75;66.02
41632;BME280;37452;51.938;4.624;2023-05-20T10:03:25;76410.84;;;-142.75;66.58
41632;BME280;37452;51.938;4.624;2023-05-20T10:16:16;76501.41;;;-142.75;66.53
41632;BME280;37452;51.938;4.624;2023-05-20T10:19:31;76542.72;;;-142.75;66.92
41632;BME280;37452;51.938;4.624;2023-05-20T10:21:31;76562.41;;;-142.75;66.81
41632;BME280;37452;51.938;4.624;2023-05-20T10:24:04;76623.44;;;-142.75;66.82
41632;BME280;37452;51.938;4.624;2023-05-20T10:26:36;76660.84;;;-142.75;67.41
41632;BME280;37452;51.938;4.624;2023-05-20T10:29:12;76615.56;;;-142.75;68.63
41632;BME280;37452;51.938;4.624;2023-05-20T10:31:43;76566.34;;;-142.75;70.23
41632;BME280;37452;51.938;4.624;2023-05-20T10:34:13;76538.78;;;-142.75;70.05
41632;BME280;37452;51.938;4.624;2023-05-20T10:36:43;76444.31;;;-142.75;69.70
41632;BME280;37452;51.938;4.624;2023-05-20T10:39:13;76363.59;;;-142.75;69.94
41632;BME280;37452;51.938;4.624;2023-05-20T10:41:40;76371.47;;;-142.75;68.42
41632;BME280;37452;51.938;4.624;2023-05-20T10:44:05;76399.03;;;-142.75;66.66
41632;BME280;37452;51.938;4.624;2023-05-20T10:46:31;76359.66;;;-142.75;66.68
41632;BME280;37452;51.938;4.624;2023-05-20T10:48:57;76381.31;;;-142.75;67.70
41632;BME280;37452;51.938;4.624;2023-05-20T10:51:23;76454.16;;;-142.75;67.87
41632;BME280;37452;51.938;4.624;2023-05-20T10:53:50;76548.63;;;-142.75;61.65
41632;BME280;37452;51.938;4.624;2023-05-20T10:56:16;76550.59;;;-142.75;67.23
41632;BME280;37452;51.938;4.624;2023-05-20T10:58:43;76605.72;;;-142.75;65.19
41632;BME280;37452;51.938;4.624;2023-05-20T11:01:08;76534.84;;;-142.75;64.50
41632;BME280;37452;51.938;4.624;2023-05-20T11:03:34;76446.28;;;-142.75;67.47
41632;BME280;37452;51.938;4.624;2023-05-20T11:06:00;76499.44;;;-142.75;62.41
41632;BME280;37452;51.938;4.624;2023-05-20T11:08:28;76501.41;;;-142.75;65.00
41632;BME280;37452;51.938;4.624;2023-05-20T11:10:55;76479.75;;;-142.75;68.18
41632;BME280;37452;51.938;4.624;2023-05-20T11:13:21;76438.41;;;-142.75;63.29
41632;BME280;37452;51.938;4.624;2023-05-20T11:15:47;76399.03;;;-142.75;60.21
41632;BME280;37452;51.938;4.624;2023-05-20T11:18:13;76434.47;;;-142.75;62.42
41632;BME280;37452;51.938;4.624;2023-05-20T11:20:39;76479.75;;;-142.75;62.26
41632;BME280;37452;51.938;4.624;2023-05-20T11:23:04;76434.47;;;-142.75;61.60
41632;BME280;37452;51.938;4.624;2023-05-20T11:25:31;76440.38;;;-142.75;64.82
41632;BME280;37452;51.938;4.624;2023-05-20T11:27:56;76422.66;;;-142.75;62.33
41632;BME280;37452;51.938;4.624;2023-05-20T11:30:22;76395.09;;;-142.75;62.98
41632;BME280;37452;51.938;4.624;2023-05-20T11:33:00;76428.56;;;-142.75;60.49
41632;BME280;37452;51.938;4.624;2023-05-20T11:35:25;76395.09;;;-142.75;62.94
41632;BME280;37452;51.938;4.624;2023-05-20T11:38:00;76436.44;;;-142.75;64.50
41632;BME280;37452;51.938;4.624;2023-05-20T11:40:25;76465.97;;;-142.75;63.23
41632;BME280;37452;51.938;4.624;2023-05-20T11:42:52;76440.38;;;-142.75;63.93
41632;BME280;37452;51.938;4.624;2023-05-20T11:45:17;76353.78;;;-142.75;65.88
41632;BME280;37452;51.938;4.624;2023-05-20T11:47:42;76373.44;;;-142.75;59.33
41632;BME280;37452;51.938;4.624;2023-05-20T11:50:08;76314.41;;;-142.75;63.04
41632;BME280;37452;51.938;4.624;2023-05-20T11:52:33;76302.59;;;-142.75;59.38
41632;BME280;37452;51.938;4.624;2023-05-20T11:54:59;76277.00;;;-142.75;64.57
41632;BME280;37452;51.938;4.624;2023-05-20T11:57:24;76278.97;;;-142.75;60.61
41632;BME280;37452;51.938;4.624;2023-05-20T11:59:49;76292.75;;;-142.75;61.75
41632;BME280;37452;51.938;4.624;2023-05-20T12:02:14;76345.91;;;-142.75;59.39
41632;BME280;37452;51.938;4.624;2023-05-20T12:04:40;76324.25;;;-142.75;62.95
41632;BME280;37452;51.938;4.624;2023-05-20T12:07:05;76243.53;;;-142.75;64.94
41632;BME280;37452;51.938;4.624;2023-05-20T12:09:33;76182.53;;;-142.75;64.30
41632;BME280;37452;51.938;4.624;2023-05-20T12:11:58;76235.66;;;-142.75;58.38
41632;BME280;37452;51.938;4.624;2023-05-20T12:14:23;76188.44;;;-142.75;59.85
41632;BME280;37452;51.938;4.624;2023-05-20T12:16:48;76251.41;;;-142.75;58.50
41632;BME280;37452;51.938;4.624;2023-05-20T12:19:14;76302.59;;;-142.75;62.55
41632;BME280;37452;51.938;4.624;2023-05-20T12:21:39;76389.19;;;-142.75;64.61
41632;BME280;37452;51.938;4.624;2023-05-20T12:24:05;76464.00;;;-142.75;63.76
41632;BME280;37452;51.938;4.624;2023-05-20T12:26:32;76448.25;;;-142.75;65.12
41632;BME280;37452;51.938;4.624;2023-05-20T12:28:59;76432.50;;;-142.75;67.17
41632;BME280;37452;51.938;4.624;2023-05-20T12:31:24;76377.38;;;-142.75;66.42
41632;BME280;37452;51.938;4.624;2023-05-20T12:33:50;76343.94;;;-142.75;66.22
41632;BME280;37452;51.938;4.624;2023-05-20T12:36:15;76300.63;;;-142.75;64.10